sensor_id;sensor_type;location;lat;lon;timestamp;P1;durP1;ratioP1;P2;durP2;ratioP2
85081;SDS011;75424;50.762;7.178;2024-01-07T00:00:02;32.08;;;15.30;;
85081;SDS011;75424;50.762;7.178;2024-01-07T00:02:28;27.83;;;12.25;;
85081;SDS011;75424;50.762;7.178;2024-01-07T00:04:55;24.10;;;11.82;;
85081;SDS011;75424;50.762;7.178;2024-01-07T00:07:21;30.58;;;12.63;;
85081;SDS011;75424;50.762;7.178;2024-01-07T00:09:46;28.05;;;13.30;;
85081;SDS011;75424;50.762;7.178;2024-01-07T00:12:11;24.30;;;11.60;;
85081;SDS011;75424;50.762;7.178;2024-01-07T00:14:37;23.73;;;11.52;;
85081;SDS011;75424;50.762;7.178;2024-01-07T00:17:02;24.10;;;10.93;;
85081;SDS011;75424;50.762;7.178;2024-01-07T00:19:28;24.90;;;12.18;;
85081;SDS011;75424;50.762;7.178;2024-01-07T00:21:56;24.27;;;10.95;;
85081;SDS011;75424;50.762;7.178;2024-01-07T00:24:21;22.57;;;10.93;;
85081;SDS011;75424;50.762;7.178;2024-01-07T00:26:46;25.35;;;12.23;;
85081;SDS011;75424;50.762;7.178;2024-01-07T00:29:11;26.20;;;11.40;;
85081;SDS011;75424;50.762;7.178;2024-01-07T00:31:37;26.40;;;12.20;;
85081;SDS011;75424;50.762;7.178;2024-01-07T00:34:02;21.20;;;9.70;;
85081;SDS011;75424;50.762;7.178;2024-01-07T00:36:27;23.20;;;10.67;;
85081;SDS011;75424;50.762;7.178;2024-01-07T00:38:52;23.38;;;11.48;;
85081;SDS011;75424;50.762;7.178;2024-01-07T00:41:18;21.08;;;11.32;;
85081;SDS011;75424;50.762;7.178;2024-01-07T00:43:43;26.63;;;10.40;;
85081;SDS011;75424;50.762;7.178;2024-01-07T00:46:08;19.80;;;9.77;;
85081;SDS011;75424;50.762;7.178;2024-01-07T00:48:34;23.77;;;11.55;;
85081;SDS011;75424;50.762;7.178;2024-01-07T00:50:59;20.40;;;9.53;;
85081;SDS011;75424;50.762;7.178;2024-01-07T00:53:25;19.08;;;10.43;;
85081;SDS011;75424;50.762;7.178;2024-01-07T00:55:50;22.47;;;10.53;;
85081;SDS011;75424;50.762;7.178;2024-01-07T00:58:16;19.87;;;10.20;;
85081;SDS011;75424;50.762;7.178;2024-01-07T01:00:41;24.13;;;10.30;;
85081;SDS011;75424;50.762;7.178;2024-01-07T01:03:07;20.10;;;10.20;;
85081;SDS011;75424;50.762;7.178;2024-01-07T01:05:32;19.73;;;9.60;;
85081;SDS011;75424;50.762;7.178;2024-01-07T01:07:57;21.53;;;11.70;;
85081;SDS011;75424;50.762;7.178;2024-01-07T01:10:22;22.07;;;10.60;;
85081;SDS011;75424;50.762;7.178;2024-01-07T01:12:48;21.37;;;9.87;;
85081;SDS011;75424;50.762;7.178;2024-01-07T01:15:13;19.48;;;9.77;;
85081;SDS011;75424;50.762;7.178;2024-01-07T01:17:41;21.48;;;9.45;;
85081;SDS011;75424;50.762;7.178;2024-01-07T01:20:07;21.45;;;9.90;;
85081;SDS011;75424;50.762;7.178;2024-01-07T01:22:32;18.80;;;9.80;;
85081;SDS011;75424;50.762;7.178;2024-01-07T01:24:58;18.47;;;9.00;;
85081;SDS011;75424;50.762;7.178;2024-01-07T01:27:23;21.27;;;10.23;;
85081;SDS011;75424;50.762;7.178;2024-01-07T01:29:48;19.03;;;10.23;;
85081;SDS011;75424;50.762;7.178;2024-01-07T01:32:13;19.38;;;10.35;;
85081;SDS011;75424;50.762;7.178;2024-01-07T01:34:42;16.73;;;8.80;;
85081;SDS011;75424;50.762;7.178;2024-01-07T01:37:08;18.83;;;9.00;;
85081;SDS011;75424;50.762;7.178;2024-01-07T01:39:34;19.00;;;9.20;;
85081;SDS011;75424;50.762;7.178;2024-01-07T01:41:59;25.47;;;12.50;;
85081;SDS011;75424;50.762;7.178;2024-01-07T01:44:24;18.03;;;8.93;;
85081;SDS011;75424;50.762;7.178;2024-01-07T01:46:52;21.33;;;9.85;;
85081;SDS011;75424;50.762;7.178;2024-01-07T01:49:17;23.70;;;10.90;;
85081;SDS011;75424;50.762;7.178;2024-01-07T01:51:46;21.65;;;9.48;;
85081;SDS011;75424;50.762;7.178;2024-01-07T01:54:12;21.10;;;9.70;;
85081;SDS011;75424;50.762;7.178;2024-01-07T01:56:37;16.98;;;8.80;;
85081;SDS011;75424;50.762;7.178;2024-01-07T01:59:06;16.77;;;9.02;;
85081;SDS011;75424;50.762;7.178;2024-01-07T02:01:31;18.33;;;9.35;;
85081;SDS011;75424;50.762;7.178;2024-01-07T02:03:57;19.95;;;9.68;;
85081;SDS011;75424;50.762;7.178;2024-01-07T02:06:22;16.73;;;8.30;;
85081;SDS011;75424;50.762;7.178;2024-01-07T02:08:48;21.67;;;10.07;;
85081;SDS011;75424;50.762;7.178;2024-01-07T02:11:18;16.45;;;8.38;;
85081;SDS011;75424;50.762;7.178;2024-01-07T02:13:44;18.63;;;8.63;;
85081;SDS011;75424;50.762;7.178;2024-01-07T02:16:10;18.00;;;8.60;;
85081;SDS011;75424;50.762;7.178;2024-01-07T02:18:35;17.38;;;8.45;;
85081;SDS011;75424;50.762;7.178;2024-01-07T02:21:02;19.45;;;9.02;;
85081;SDS011;75424;50.762;7.178;2024-01-07T02:23:28;13.98;;;8.20;;
85081;SDS011;75424;50.762;7.178;2024-01-07T02:25:53;18.13;;;8.50;;
85081;SDS011;75424;50.762;7.178;2024-01-07T02:28:18;16.90;;;8.20;;
85081;SDS011;75424;50.762;7.178;2024-01-07T02:30:43;16.27;;;7.77;;
85081;SDS011;75424;50.762;7.178;2024-01-07T02:33:09;15.95;;;7.43;;
85081;SDS011;75424;50.762;7.178;2024-01-07T02:35:34;15.90;;;7.20;;
85081;SDS011;75424;50.762;7.178;2024-01-07T02:37:59;15.80;;;8.02;;
85081;SDS011;75424;50.762;7.178;2024-01-07T02:40:25;15.45;;;7.47;;
85081;SDS011;75424;50.762;7.178;2024-01-07T02:42:50;16.03;;;7.07;;
85081;SDS011;75424;50.762;7.178;2024-01-07T02:45:15;13.40;;;8.10;;
85081;SDS011;75424;50.762;7.178;2024-01-07T02:47:41;12.77;;;6.30;;
85081;SDS011;75424;50.762;7.178;2024-01-07T02:50:06;16.48;;;7.18;;
85081;SDS011;75424;50.762;7.178;2024-01-07T02:52:32;11.02;;;6.43;;
85081;SDS011;75424;50.762;7.178;2024-01-07T02:54:57;14.23;;;7.07;;
85081;SDS011;75424;50.762;7.178;2024-01-07T02:57:22;13.63;;;6.75;;
85081;SDS011;75424;50.762;7.178;2024-01-07T02:59:48;12.20;;;6.93;;
85081;SDS011;75424;50.762;7.178;2024-01-07T03:02:13;13.23;;;6.18;;
85081;SDS011;75424;50.762;7.178;2024-01-07T03:04:38;13.77;;;6.77;;
85081;SDS011;75424;50.762;7.178;2024-01-07T03:07:03;16.27;;;8.60;;
85081;SDS011;75424;50.762;7.178;2024-01-07T03:09:29;12.17;;;6.53;;
85081;SDS011;75424;50.762;7.178;2024-01-07T03:11:54;12.90;;;7.07;;
85081;SDS011;75424;50.762;7.178;2024-01-07T03:14:19;10.57;;;7.17;;
85081;SDS011;75424;50.762;7.178;2024-01-07T03:16:46;13.15;;;6.30;;
85081;SDS011;75424;50.762;7.178;2024-01-07T03:19:11;12.50;;;6.78;;
85081;SDS011;75424;50.762;7.178;2024-01-07T03:21:37;12.82;;;6.78;;
85081;SDS011;75424;50.762;7.178;2024-01-07T03:24:02;15.40;;;7.32;;
85081;SDS011;75424;50.762;7.178;2024-01-07T03:26:32;16.50;;;7.45;;
85081;SDS011;75424;50.762;7.178;2024-01-07T03:28:58;14.95;;;7.45;;
85081;SDS011;75424;50.762;7.178;2024-01-07T03:31:24;15.07;;;7.57;;
85081;SDS011;75424;50.762;7.178;2024-01-07T03:33:50;18.63;;;8.35;;
85081;SDS011;75424;50.762;7.178;2024-01-07T03:36:15;14.95;;;7.82;;
85081;SDS011;75424;50.762;7.178;2024-01-07T03:38:41;18.83;;;7.60;;
85081;SDS011;75424;50.762;7.178;2024-01-07T03:41:06;20.90;;;8.82;;
85081;SDS011;75424;50.762;7.178;2024-01-07T03:43:32;16.20;;;7.93;;
85081;SDS011;75424;50.762;7.178;2024-01-07T03:45:58;15.35;;;7.95;;
85081;SDS011;75424;50.762;7.178;2024-01-07T03:48:23;23.48;;;9.27;;
85081;SDS011;75424;50.762;7.178;2024-01-07T03:50:49;18.33;;;8.95;;
85081;SDS011;75424;50.762;7.178;2024-01-07T03:53:14;18.67;;;8.57;;
85081;SDS011;75424;50.762;7.178;2024-01-07T03:55:40;18.92;;;9.48;;
85081;SDS011;75424;50.762;7.178;2024-01-07T03:58:05;22.03;;;10.07;;
85081;SDS011;75424;50.762;7.178;2024-01-07T04:00:31;22.75;;;9.90;;
85081;SDS011;75424;50.762;7.178;2024-01-07T04:02:56;23.05;;;9.32;;
85081;SDS011;75424;50.762;7.178;2024-01-07T04:05:21;20.17;;;10.10;;
85081;SDS011;75424;50.762;7.178;2024-01-07T04:07:47;21.35;;;10.20;;
85081;SDS011;75424;50.762;7.178;2024-01-07T04:10:12;20.87;;;10.00;;
85081;SDS011;75424;50.762;7.178;2024-01-07T04:12:37;22.57;;;10.30;;
85081;SDS011;75424;50.762;7.178;2024-01-07T04:15:03;22.13;;;10.93;;
85081;SDS011;75424;50.762;7.178;2024-01-07T04:17:29;19.55;;;9.13;;
85081;SDS011;75424;50.762;7.178;2024-01-07T04:19:54;21.00;;;10.23;;
85081;SDS011;75424;50.762;7.178;2024-01-07T04:22:20;20.08;;;10.05;;
85081;SDS011;75424;50.762;7.178;2024-01-07T04:24:45;22.77;;;10.93;;
85081;SDS011;75424;50.762;7.178;2024-01-07T04:27:10;21.43;;;9.53;;
85081;SDS011;75424;50.762;7.178;2024-01-07T04:29:36;17.35;;;9.63;;
85081;SDS011;75424;50.762;7.178;2024-01-07T04:32:01;17.67;;;9.57;;
85081;SDS011;75424;50.762;7.178;2024-01-07T04:34:26;19.55;;;9.00;;
85081;SDS011;75424;50.762;7.178;2024-01-07T04:36:52;15.23;;;8.32;;
85081;SDS011;75424;50.762;7.178;2024-01-07T04:39:17;17.90;;;9.27;;
85081;SDS011;75424;50.762;7.178;2024-01-07T04:41:43;20.42;;;10.27;;
85081;SDS011;75424;50.762;7.178;2024-01-07T04:44:08;16.97;;;9.93;;
85081;SDS011;75424;50.762;7.178;2024-01-07T04:46:34;16.50;;;8.73;;
85081;SDS011;75424;50.762;7.178;2024-01-07T04:49:00;16.38;;;8.73;;
85081;SDS011;75424;50.762;7.178;2024-01-07T04:51:26;23.73;;;9.40;;
85081;SDS011;75424;50.762;7.178;2024-01-07T04:53:51;16.57;;;8.67;;
85081;SDS011;75424;50.762;7.178;2024-01-07T04:56:16;16.40;;;8.90;;
85081;SDS011;75424;50.762;7.178;2024-01-07T04:58:42;17.33;;;8.30;;
85081;SDS011;75424;50.762;7.178;2024-01-07T05:01:07;19.17;;;9.17;;
85081;SDS011;75424;50.762;7.178;2024-01-07T05:03:32;18.30;;;9.00;;
85081;SDS011;75424;50.762;7.178;2024-01-07T05:05:58;16.98;;;8.85;;
85081;SDS011;75424;50.762;7.178;2024-01-07T05:08:24;20.13;;;8.47;;
85081;SDS011;75424;50.762;7.178;2024-01-07T05:10:49;20.37;;;9.37;;
85081;SDS011;75424;50.762;7.178;2024-01-07T05:13:14;19.17;;;9.27;;
85081;SDS011;75424;50.762;7.178;2024-01-07T05:15:40;18.58;;;9.77;;
85081;SDS011;75424;50.762;7.178;2024-01-07T05:18:08;22.40;;;9.25;;
85081;SDS011;75424;50.762;7.178;2024-01-07T05:20:34;16.70;;;8.65;;
85081;SDS011;75424;50.762;7.178;2024-01-07T05:23:00;19.65;;;8.60;;
85081;SDS011;75424;50.762;7.178;2024-01-07T05:25:25;20.25;;;9.95;;
85081;SDS011;75424;50.762;7.178;2024-01-07T05:27:50;16.20;;;8.80;;
85081;SDS011;75424;50.762;7.178;2024-01-07T05:30:16;19.93;;;8.67;;
85081;SDS011;75424;50.762;7.178;2024-01-07T05:32:41;18.37;;;9.40;;
85081;SDS011;75424;50.762;7.178;2024-01-07T05:35:06;18.53;;;9.13;;
85081;SDS011;75424;50.762;7.178;2024-01-07T05:37:32;17.45;;;8.70;;
85081;SDS011;75424;50.762;7.178;2024-01-07T05:39:57;17.83;;;9.77;;
85081;SDS011;75424;50.762;7.178;2024-01-07T05:42:22;20.80;;;9.07;;
85081;SDS011;75424;50.762;7.178;2024-01-07T05:44:48;17.40;;;9.20;;
85081;SDS011;75424;50.762;7.178;2024-01-07T05:47:13;21.07;;;9.40;;
85081;SDS011;75424;50.762;7.178;2024-01-07T05:49:38;16.23;;;8.70;;
85081;SDS011;75424;50.762;7.178;2024-01-07T05:52:03;19.00;;;10.93;;
85081;SDS011;75424;50.762;7.178;2024-01-07T05:54:29;17.52;;;8.52;;
85081;SDS011;75424;50.762;7.178;2024-01-07T05:56:54;17.83;;;9.17;;
85081;SDS011;75424;50.762;7.178;2024-01-07T05:59:20;18.85;;;9.02;;
85081;SDS011;75424;50.762;7.178;2024-01-07T06:01:45;18.40;;;8.83;;
85081;SDS011;75424;50.762;7.178;2024-01-07T06:04:10;19.17;;;9.77;;
85081;SDS011;75424;50.762;7.178;2024-01-07T06:06:35;23.65;;;11.02;;
85081;SDS011;75424;50.762;7.178;2024-01-07T06:09:01;19.73;;;9.70;;
85081;SDS011;75424;50.762;7.178;2024-01-07T06:11:27;20.65;;;10.48;;
85081;SDS011;75424;50.762;7.178;2024-01-07T06:13:52;20.60;;;10.77;;
85081;SDS011;75424;50.762;7.178;2024-01-07T06:16:18;20.85;;;9.73;;
85081;SDS011;75424;50.762;7.178;2024-01-07T06:18:43;22.40;;;10.40;;
85081;SDS011;75424;50.762;7.178;2024-01-07T06:21:09;22.47;;;10.53;;
85081;SDS011;75424;50.762;7.178;2024-01-07T06:23:34;24.20;;;10.43;;
85081;SDS011;75424;50.762;7.178;2024-01-07T06:26:02;24.23;;;11.07;;
85081;SDS011;75424;50.762;7.178;2024-01-07T06:28:28;19.63;;;10.23;;
85081;SDS011;75424;50.762;7.178;2024-01-07T06:30:53;25.33;;;11.73;;
85081;SDS011;75424;50.762;7.178;2024-01-07T06:33:18;20.77;;;11.03;;
85081;SDS011;75424;50.762;7.178;2024-01-07T06:35:45;17.98;;;9.30;;
85081;SDS011;75424;50.762;7.178;2024-01-07T06:38:11;20.27;;;10.10;;
85081;SDS011;75424;50.762;7.178;2024-01-07T06:40:36;21.80;;;11.35;;
85081;SDS011;75424;50.762;7.178;2024-01-07T06:43:01;22.47;;;10.77;;
85081;SDS011;75424;50.762;7.178;2024-01-07T06:45:26;20.97;;;10.97;;
85081;SDS011;75424;50.762;7.178;2024-01-07T06:47:52;21.70;;;11.77;;
85081;SDS011;75424;50.762;7.178;2024-01-07T06:50:18;24.08;;;10.80;;
85081;SDS011;75424;50.762;7.178;2024-01-07T06:52:45;18.67;;;9.93;;
85081;SDS011;75424;50.762;7.178;2024-01-07T06:55:10;21.10;;;10.85;;
85081;SDS011;75424;50.762;7.178;2024-01-07T06:57:36;21.55;;;10.50;;
85081;SDS011;75424;50.762;7.178;2024-01-07T07:00:01;18.77;;;10.03;;
85081;SDS011;75424;50.762;7.178;2024-01-07T07:02:27;19.45;;;10.65;;
85081;SDS011;75424;50.762;7.178;2024-01-07T07:04:52;22.30;;;11.70;;
85081;SDS011;75424;50.762;7.178;2024-01-07T07:07:18;20.23;;;10.07;;
85081;SDS011;75424;50.762;7.178;2024-01-07T07:09:43;17.97;;;9.53;;
85081;SDS011;75424;50.762;7.178;2024-01-07T07:12:08;17.43;;;9.93;;
85081;SDS011;75424;50.762;7.178;2024-01-07T07:14:33;20.73;;;11.07;;
85081;SDS011;75424;50.762;7.178;2024-01-07T07:16:59;18.17;;;10.35;;
85081;SDS011;75424;50.762;7.178;2024-01-07T07:19:25;20.05;;;10.63;;
85081;SDS011;75424;50.762;7.178;2024-01-07T07:21:50;18.97;;;9.77;;
85081;SDS011;75424;50.762;7.178;2024-01-07T07:24:15;17.43;;;10.07;;
85081;SDS011;75424;50.762;7.178;2024-01-07T07:26:40;22.17;;;11.05;;
85081;SDS011;75424;50.762;7.178;2024-01-07T07:29:08;18.73;;;10.17;;
85081;SDS011;75424;50.762;7.178;2024-01-07T07:31:37;21.98;;;11.50;;
85081;SDS011;75424;50.762;7.178;2024-01-07T07:34:05;19.02;;;10.75;;
85081;SDS011;75424;50.762;7.178;2024-01-07T07:36:31;20.20;;;10.10;;
85081;SDS011;75424;50.762;7.178;2024-01-07T07:38:56;17.95;;;9.95;;
85081;SDS011;75424;50.762;7.178;2024-01-07T07:41:21;22.45;;;11.65;;
85081;SDS011;75424;50.762;7.178;2024-01-07T07:43:47;22.65;;;10.35;;
85081;SDS011;75424;50.762;7.178;2024-01-07T07:46:12;23.57;;;10.57;;
85081;SDS011;75424;50.762;7.178;2024-01-07T07:48:38;23.90;;;10.77;;
85081;SDS011;75424;50.762;7.178;2024-01-07T07:51:03;20.60;;;10.13;;
85081;SDS011;75424;50.762;7.178;2024-01-07T07:53:29;20.23;;;9.70;;
85081;SDS011;75424;50.762;7.178;2024-01-07T07:55:55;18.80;;;10.32;;
85081;SDS011;75424;50.762;7.178;2024-01-07T07:58:20;18.03;;;9.50;;
85081;SDS011;75424;50.762;7.178;2024-01-07T08:00:45;20.23;;;9.83;;
85081;SDS011;75424;50.762;7.178;2024-01-07T08:03:10;21.13;;;10.97;;
85081;SDS011;75424;50.762;7.178;2024-01-07T08:05:36;23.20;;;11.30;;
85081;SDS011;75424;50.762;7.178;2024-01-07T08:08:01;19.17;;;11.18;;
85081;SDS011;75424;50.762;7.178;2024-01-07T08:10:27;22.05;;;10.27;;
85081;SDS011;75424;50.762;7.178;2024-01-07T08:12:53;19.33;;;10.15;;
85081;SDS011;75424;50.762;7.178;2024-01-07T08:15:19;22.42;;;10.32;;
85081;SDS011;75424;50.762;7.178;2024-01-07T08:17:44;25.75;;;11.50;;
85081;SDS011;75424;50.762;7.178;2024-01-07T08:20:10;15.93;;;9.68;;
85081;SDS011;75424;50.762;7.178;2024-01-07T08:22:36;20.52;;;9.50;;
85081;SDS011;75424;50.762;7.178;2024-01-07T08:25:01;18.55;;;10.07;;
85081;SDS011;75424;50.762;7.178;2024-01-07T08:27:26;19.33;;;10.53;;
85081;SDS011;75424;50.762;7.178;2024-01-07T08:29:52;20.05;;;11.27;;
85081;SDS011;75424;50.762;7.178;2024-01-07T08:32:17;19.23;;;10.80;;
85081;SDS011;75424;50.762;7.178;2024-01-07T08:34:44;20.30;;;10.43;;
85081;SDS011;75424;50.762;7.178;2024-01-07T08:37:09;16.52;;;9.40;;
85081;SDS011;75424;50.762;7.178;2024-01-07T08:39:35;21.98;;;12.20;;
85081;SDS011;75424;50.762;7.178;2024-01-07T08:42:00;17.90;;;10.20;;
85081;SDS011;75424;50.762;7.178;2024-01-07T08:44:25;18.38;;;10.18;;
85081;SDS011;75424;50.762;7.178;2024-01-07T08:46:50;17.03;;;10.00;;
85081;SDS011;75424;50.762;7.178;2024-01-07T08:49:16;16.57;;;9.10;;
85081;SDS011;75424;50.762;7.178;2024-01-07T08:51:41;16.60;;;9.97;;
85081;SDS011;75424;50.762;7.178;2024-01-07T08:54:06;20.77;;;10.17;;
85081;SDS011;75424;50.762;7.178;2024-01-07T08:56:31;18.67;;;10.23;;
85081;SDS011;75424;50.762;7.178;2024-01-07T08:58:57;14.20;;;9.43;;
85081;SDS011;75424;50.762;7.178;2024-01-07T09:01:23;17.70;;;9.60;;
85081;SDS011;75424;50.762;7.178;2024-01-07T09:03:49;17.63;;;9.73;;
85081;SDS011;75424;50.762;7.178;2024-01-07T09:06:14;15.93;;;9.17;;
85081;SDS011;75424;50.762;7.178;2024-01-07T09:08:40;14.75;;;8.60;;
85081;SDS011;75424;50.762;7.178;2024-01-07T09:11:05;15.48;;;9.70;;
85081;SDS011;75424;50.762;7.178;2024-01-07T09:13:32;16.35;;;9.20;;
85081;SDS011;75424;50.762;7.178;2024-01-07T09:15:57;14.38;;;7.65;;
85081;SDS011;75424;50.762;7.178;2024-01-07T09:18:22;15.52;;;7.88;;
85081;SDS011;75424;50.762;7.178;2024-01-07T09:20:48;12.10;;;7.65;;
85081;SDS011;75424;50.762;7.178;2024-01-07T09:23:13;17.20;;;8.53;;
85081;SDS011;75424;50.762;7.178;2024-01-07T09:25:40;17.60;;;9.30;;
85081;SDS011;75424;50.762;7.178;2024-01-07T09:28:06;14.18;;;9.23;;
85081;SDS011;75424;50.762;7.178;2024-01-07T09:30:31;15.15;;;8.75;;
85081;SDS011;75424;50.762;7.178;2024-01-07T09:32:57;17.33;;;9.73;;
85081;SDS011;75424;50.762;7.178;2024-01-07T09:35:22;17.53;;;11.10;;
85081;SDS011;75424;50.762;7.178;2024-01-07T09:37:47;15.83;;;9.87;;
85081;SDS011;75424;50.762;7.178;2024-01-07T09:40:16;16.55;;;9.23;;
85081;SDS011;75424;50.762;7.178;2024-01-07T09:42:45;16.85;;;9.90;;
85081;SDS011;75424;50.762;7.178;2024-01-07T09:45:12;16.02;;;9.35;;
85081;SDS011;75424;50.762;7.178;2024-01-07T09:47:38;18.23;;;11.00;;
85081;SDS011;75424;50.762;7.178;2024-01-07T09:50:05;16.45;;;9.15;;
85081;SDS011;75424;50.762;7.178;2024-01-07T09:52:31;15.35;;;9.32;;
85081;SDS011;75424;50.762;7.178;2024-01-07T09:54:58;17.20;;;9.45;;
85081;SDS011;75424;50.762;7.178;2024-01-07T09:57:26;16.00;;;8.65;;
85081;SDS011;75424;50.762;7.178;2024-01-07T09:59:51;16.45;;;9.52;;
85081;SDS011;75424;50.762;7.178;2024-01-07T10:02:17;21.27;;;10.90;;
85081;SDS011;75424;50.762;7.178;2024-01-07T10:04:43;18.25;;;9.68;;
85081;SDS011;75424;50.762;7.178;2024-01-07T10:07:10;12.40;;;8.70;;
85081;SDS011;75424;50.762;7.178;2024-01-07T10:09:35;17.87;;;9.63;;
85081;SDS011;75424;50.762;7.178;2024-01-07T10:12:00;18.05;;;10.38;;
85081;SDS011;75424;50.762;7.178;2024-01-07T10:14:27;17.17;;;8.93;;
85081;SDS011;75424;50.762;7.178;2024-01-07T10:16:52;19.25;;;9.85;;
85081;SDS011;75424;50.762;7.178;2024-01-07T10:19:21;20.38;;;10.77;;
85081;SDS011;75424;50.762;7.178;2024-01-07T10:22:01;19.55;;;10.77;;
85081;SDS011;75424;50.762;7.178;2024-01-07T10:24:31;16.67;;;9.43;;
85081;SDS011;75424;50.762;7.178;2024-01-07T10:27:01;16.02;;;9.43;;
85081;SDS011;75424;50.762;7.178;2024-01-07T10:29:27;19.83;;;11.60;;
85081;SDS011;75424;50.762;7.178;2024-01-07T10:31:55;18.38;;;10.48;;
85081;SDS011;75424;50.762;7.178;2024-01-07T10:34:22;16.92;;;9.77;;
85081;SDS011;75424;50.762;7.178;2024-01-07T10:36:50;19.50;;;10.57;;
85081;SDS011;75424;50.762;7.178;2024-01-07T10:39:19;15.73;;;9.90;;
85081;SDS011;75424;50.762;7.178;2024-01-07T10:41:44;16.73;;;10.02;;
85081;SDS011;75424;50.762;7.178;2024-01-07T10:44:11;19.80;;;10.50;;
85081;SDS011;75424;50.762;7.178;2024-01-07T10:46:37;19.17;;;10.93;;
85081;SDS011;75424;50.762;7.178;2024-01-07T10:49:07;19.63;;;10.15;;
85081;SDS011;75424;50.762;7.178;2024-01-07T10:51:44;20.75;;;9.98;;
85081;SDS011;75424;50.762;7.178;2024-01-07T10:54:11;14.75;;;9.27;;
85081;SDS011;75424;50.762;7.178;2024-01-07T10:56:45;16.42;;;10.40;;
85081;SDS011;75424;50.762;7.178;2024-01-07T10:59:13;12.45;;;8.30;;
85081;SDS011;75424;50.762;7.178;2024-01-07T11:01:40;13.32;;;9.35;;
85081;SDS011;75424;50.762;7.178;2024-01-07T11:04:06;16.83;;;10.07;;
85081;SDS011;75424;50.762;7.178;2024-01-07T11:06:43;14.30;;;7.88;;
85081;SDS011;75424;50.762;7.178;2024-01-07T11:09:19;13.02;;;8.10;;
85081;SDS011;75424;50.762;7.178;2024-01-07T11:11:49;13.43;;;7.78;;
85081;SDS011;75424;50.762;7.178;2024-01-07T11:17:04;13.52;;;7.90;;
85081;SDS011;75424;50.762;7.178;2024-01-07T11:19:30;12.43;;;7.00;;
85081;SDS011;75424;50.762;7.178;2024-01-07T11:24:57;13.93;;;8.35;;
85081;SDS011;75424;50.762;7.178;2024-01-07T11:27:23;12.38;;;7.95;;
85081;SDS011;75424;50.762;7.178;2024-01-07T11:29:56;14.73;;;9.32;;
85081;SDS011;75424;50.762;7.178;2024-01-07T11:32:29;12.75;;;8.00;;
85081;SDS011;75424;50.762;7.178;2024-01-07T11:34:55;12.38;;;7.40;;
85081;SDS011;75424;50.762;7.178;2024-01-07T11:37:21;16.50;;;9.23;;
85081;SDS011;75424;50.762;7.178;2024-01-07T11:39:48;14.88;;;9.68;;
85081;SDS011;75424;50.762;7.178;2024-01-07T11:42:15;11.38;;;7.13;;
85081;SDS011;75424;50.762;7.178;2024-01-07T11:45:02;12.98;;;8.85;;
85081;SDS011;75424;50.762;7.178;2024-01-07T11:47:27;12.27;;;7.80;;
85081;SDS011;75424;50.762;7.178;2024-01-07T11:49:53;11.75;;;8.25;;
85081;SDS011;75424;50.762;7.178;2024-01-07T11:52:18;14.48;;;8.55;;
85081;SDS011;75424;50.762;7.178;2024-01-07T11:54:44;8.57;;;6.10;;
85081;SDS011;75424;50.762;7.178;2024-01-07T11:57:10;13.85;;;8.55;;
85081;SDS011;75424;50.762;7.178;2024-01-07T11:59:35;12.95;;;8.73;;
85081;SDS011;75424;50.762;7.178;2024-01-07T12:02:01;13.40;;;9.38;;
85081;SDS011;75424;50.762;7.178;2024-01-07T12:04:32;14.15;;;8.70;;
85081;SDS011;75424;50.762;7.178;2024-01-07T12:06:58;12.25;;;8.60;;
85081;SDS011;75424;50.762;7.178;2024-01-07T12:09:24;16.50;;;9.50;;
85081;SDS011;75424;50.762;7.178;2024-01-07T12:11:50;14.63;;;8.50;;
85081;SDS011;75424;50.762;7.178;2024-01-07T12:14:16;13.80;;;8.80;;
85081;SDS011;75424;50.762;7.178;2024-01-07T12:16:42;17.65;;;10.45;;
85081;SDS011;75424;50.762;7.178;2024-01-07T12:19:08;11.98;;;8.35;;
85081;SDS011;75424;50.762;7.178;2024-01-07T12:21:34;16.88;;;10.52;;
85081;SDS011;75424;50.762;7.178;2024-01-07T12:24:00;13.45;;;9.82;;
85081;SDS011;75424;50.762;7.178;2024-01-07T12:26:26;14.27;;;9.13;;
85081;SDS011;75424;50.762;7.178;2024-01-07T12:28:53;14.27;;;9.23;;
85081;SDS011;75424;50.762;7.178;2024-01-07T12:31:33;14.98;;;9.90;;
85081;SDS011;75424;50.762;7.178;2024-01-07T12:33:59;16.42;;;9.45;;
85081;SDS011;75424;50.762;7.178;2024-01-07T12:36:25;14.95;;;9.38;;
85081;SDS011;75424;50.762;7.178;2024-01-07T12:38:51;13.85;;;9.13;;
85081;SDS011;75424;50.762;7.178;2024-01-07T12:41:19;12.45;;;8.75;;
85081;SDS011;75424;50.762;7.178;2024-01-07T12:43:45;9.88;;;7.70;;
85081;SDS011;75424;50.762;7.178;2024-01-07T12:46:10;19.85;;;12.15;;
85081;SDS011;75424;50.762;7.178;2024-01-07T12:48:35;15.13;;;9.90;;
85081;SDS011;75424;50.762;7.178;2024-01-07T12:51:01;13.97;;;9.07;;
85081;SDS011;75424;50.762;7.178;2024-01-07T12:53:26;20.23;;;12.05;;
85081;SDS011;75424;50.762;7.178;2024-01-07T12:55:52;13.07;;;9.00;;
85081;SDS011;75424;50.762;7.178;2024-01-07T12:58:18;12.55;;;9.77;;
85081;SDS011;75424;50.762;7.178;2024-01-07T13:00:43;12.82;;;8.02;;
85081;SDS011;75424;50.762;7.178;2024-01-07T13:03:09;12.63;;;7.63;;
85081;SDS011;75424;50.762;7.178;2024-01-07T13:05:42;14.65;;;9.25;;
85081;SDS011;75424;50.762;7.178;2024-01-07T13:08:07;15.65;;;11.23;;
85081;SDS011;75424;50.762;7.178;2024-01-07T13:10:33;15.10;;;8.30;;
85081;SDS011;75424;50.762;7.178;2024-01-07T13:12:58;12.27;;;9.20;;
85081;SDS011;75424;50.762;7.178;2024-01-07T13:15:24;9.30;;;7.10;;
85081;SDS011;75424;50.762;7.178;2024-01-07T13:17:49;9.13;;;7.03;;
85081;SDS011;75424;50.762;7.178;2024-01-07T13:20:14;11.48;;;6.88;;
85081;SDS011;75424;50.762;7.178;2024-01-07T13:22:40;10.83;;;7.10;;
85081;SDS011;75424;50.762;7.178;2024-01-07T13:25:06;10.65;;;8.15;;
85081;SDS011;75424;50.762;7.178;2024-01-07T13:27:32;9.30;;;7.45;;
85081;SDS011;75424;50.762;7.178;2024-01-07T13:29:58;8.70;;;7.50;;
85081;SDS011;75424;50.762;7.178;2024-01-07T13:32:23;15.45;;;9.68;;
85081;SDS011;75424;50.762;7.178;2024-01-07T13:34:49;9.88;;;6.60;;
85081;SDS011;75424;50.762;7.178;2024-01-07T13:37:14;9.48;;;5.47;;
85081;SDS011;75424;50.762;7.178;2024-01-07T13:39:39;9.90;;;5.45;;
85081;SDS011;75424;50.762;7.178;2024-01-07T13:42:05;8.57;;;6.00;;
85081;SDS011;75424;50.762;7.178;2024-01-07T13:44:30;10.68;;;6.78;;
85081;SDS011;75424;50.762;7.178;2024-01-07T13:46:56;15.40;;;7.15;;
85081;SDS011;75424;50.762;7.178;2024-01-07T13:49:21;12.07;;;6.88;;
85081;SDS011;75424;50.762;7.178;2024-01-07T13:51:47;9.95;;;6.20;;
85081;SDS011;75424;50.762;7.178;2024-01-07T13:54:12;9.52;;;7.65;;
85081;SDS011;75424;50.762;7.178;2024-01-07T13:56:42;9.27;;;7.15;;
85081;SDS011;75424;50.762;7.178;2024-01-07T13:59:09;7.72;;;6.18;;
85081;SDS011;75424;50.762;7.178;2024-01-07T14:01:35;8.75;;;5.75;;
85081;SDS011;75424;50.762;7.178;2024-01-07T14:04:02;7.03;;;5.47;;
85081;SDS011;75424;50.762;7.178;2024-01-07T14:06:31;8.35;;;5.40;;
85081;SDS011;75424;50.762;7.178;2024-01-07T14:08:56;6.38;;;4.47;;
85081;SDS011;75424;50.762;7.178;2024-01-07T14:11:22;5.82;;;3.88;;
85081;SDS011;75424;50.762;7.178;2024-01-07T14:13:47;4.97;;;3.88;;
85081;SDS011;75424;50.762;7.178;2024-01-07T14:16:13;4.45;;;3.72;;
85081;SDS011;75424;50.762;7.178;2024-01-07T14:18:38;5.47;;;4.93;;
85081;SDS011;75424;50.762;7.178;2024-01-07T14:21:04;6.43;;;4.13;;
85081;SDS011;75424;50.762;7.178;2024-01-07T14:23:30;5.68;;;4.30;;
85081;SDS011;75424;50.762;7.178;2024-01-07T14:25:56;5.78;;;3.90;;
85081;SDS011;75424;50.762;7.178;2024-01-07T14:28:21;3.80;;;3.47;;